sensor_id;sensor_type;location;lat;lon;timestamp;P1;durP1;ratioP1;P2;durP2;ratioP2
24008;SDS011;12217;50.792;4.372;2023-04-30T00:01:52;25.38;;;20.17;;
24008;SDS011;12217;50.792;4.372;2023-04-30T00:04:18;22.95;;;18.80;;
24008;SDS011;12217;50.792;4.372;2023-04-30T00:06:43;23.15;;;19.90;;
24008;SDS011;12217;50.792;4.372;2023-04-30T00:09:09;24.60;;;19.20;;
24008;SDS011;12217;50.792;4.372;2023-04-30T00:11:35;25.98;;;19.85;;
24008;SDS011;12217;50.792;4.372;2023-04-30T00:14:00;24.08;;;19.17;;
24008;SDS011;12217;50.792;4.372;2023-04-30T00:16:26;26.05;;;18.83;;
24008;SDS011;12217;50.792;4.372;2023-04-30T00:18:51;26.85;;;19.83;;
24008;SDS011;12217;50.792;4.372;2023-04-30T00:21:17;22.08;;;18.15;;
24008;SDS011;12217;50.792;4.372;2023-04-30T00:23:43;22.98;;;18.55;;
24008;SDS011;12217;50.792;4.372;2023-04-30T00:26:08;22.88;;;18.27;;
24008;SDS011;12217;50.792;4.372;2023-04-30T00:28:34;23.15;;;17.95;;
24008;SDS011;12217;50.792;4.372;2023-04-30T00:31:00;24.13;;;18.42;;
24008;SDS011;12217;50.792;4.372;2023-04-30T00:33:25;23.52;;;17.77;;
24008;SDS011;12217;50.792;4.372;2023-04-30T00:35:51;23.73;;;17.65;;
24008;SDS011;12217;50.792;4.372;2023-04-30T00:38:16;22.13;;;16.65;;
24008;SDS011;12217;50.792;4.372;2023-04-30T00:40:42;24.15;;;16.63;;
24008;SDS011;12217;50.792;4.372;2023-04-30T00:43:08;22.10;;;17.10;;
24008;SDS011;12217;50.792;4.372;2023-04-30T00:45:34;22.70;;;17.15;;
24008;SDS011;12217;50.792;4.372;2023-04-30T00:47:59;22.60;;;15.98;;
24008;SDS011;12217;50.792;4.372;2023-04-30T00:50:25;20.77;;;17.05;;
24008;SDS011;12217;50.792;4.372;2023-04-30T00:52:51;22.42;;;17.33;;
24008;SDS011;12217;50.792;4.372;2023-04-30T00:55:17;19.80;;;16.92;;
24008;SDS011;12217;50.792;4.372;2023-04-30T00:57:43;20.40;;;17.00;;
24008;SDS011;12217;50.792;4.372;2023-04-30T01:00:08;22.08;;;18.13;;
24008;SDS011;12217;50.792;4.372;2023-04-30T01:02:35;23.73;;;19.00;;
24008;SDS011;12217;50.792;4.372;2023-04-30T01:05:01;23.92;;;19.10;;
24008;SDS011;12217;50.792;4.372;2023-04-30T01:07:28;22.65;;;19.75;;
24008;SDS011;12217;50.792;4.372;2023-04-30T01:09:54;27.48;;;19.42;;
24008;SDS011;12217;50.792;4.372;2023-04-30T01:12:22;24.27;;;19.73;;
24008;SDS011;12217;50.792;4.372;2023-04-30T01:15:10;25.52;;;20.42;;
24008;SDS011;12217;50.792;4.372;2023-04-30T01:20:41;27.20;;;20.10;;
24008;SDS011;12217;50.792;4.372;2023-04-30T01:28:40;25.52;;;19.58;;
24008;SDS011;12217;50.792;4.372;2023-04-30T01:31:12;23.13;;;19.83;;
24008;SDS011;12217;50.792;4.372;2023-04-30T01:33:38;25.25;;;19.10;;
24008;SDS011;12217;50.792;4.372;2023-04-30T01:36:18;24.98;;;19.42;;
24008;SDS011;12217;50.792;4.372;2023-04-30T01:39:01;23.70;;;18.23;;
24008;SDS011;12217;50.792;4.372;2023-04-30T01:47:04;24.65;;;19.02;;
24008;SDS011;12217;50.792;4.372;2023-04-30T01:52:20;22.17;;;19.15;;
24008;SDS011;12217;50.792;4.372;2023-04-30T01:55:07;24.10;;;19.70;;
24008;SDS011;12217;50.792;4.372;2023-04-30T01:57:43;26.08;;;20.20;;
24008;SDS011;12217;50.792;4.372;2023-04-30T02:00:19;27.67;;;20.60;;
24008;SDS011;12217;50.792;4.372;2023-04-30T02:02:45;23.77;;;19.77;;
24008;SDS011;12217;50.792;4.372;2023-04-30T02:05:10;23.70;;;19.13;;
24008;SDS011;12217;50.792;4.372;2023-04-30T02:07:40;23.08;;;18.38;;
24008;SDS011;12217;50.792;4.372;2023-04-30T02:10:10;19.95;;;17.63;;
24008;SDS011;12217;50.792;4.372;2023-04-30T02:12:36;27.15;;;19.90;;
24008;SDS011;12217;50.792;4.372;2023-04-30T02:15:03;24.42;;;18.85;;
24008;SDS011;12217;50.792;4.372;2023-04-30T02:17:30;21.77;;;17.63;;
24008;SDS011;12217;50.792;4.372;2023-04-30T02:19:56;22.35;;;18.00;;
24008;SDS011;12217;50.792;4.372;2023-04-30T02:22:22;23.92;;;18.17;;
24008;SDS011;12217;50.792;4.372;2023-04-30T02:24:48;20.02;;;16.85;;
24008;SDS011;12217;50.792;4.372;2023-04-30T02:27:14;22.92;;;18.08;;
24008;SDS011;12217;50.792;4.372;2023-04-30T02:29:40;22.75;;;16.30;;
24008;SDS011;12217;50.792;4.372;2023-04-30T02:32:06;23.60;;;16.50;;
24008;SDS011;12217;50.792;4.372;2023-04-30T02:34:32;24.02;;;16.15;;
24008;SDS011;12217;50.792;4.372;2023-04-30T02:36:58;20.08;;;16.23;;
24008;SDS011;12217;50.792;4.372;2023-04-30T02:39:24;23.23;;;17.90;;
24008;SDS011;12217;50.792;4.372;2023-04-30T02:41:50;24.17;;;17.45;;
24008;SDS011;12217;50.792;4.372;2023-04-30T02:44:15;22.67;;;17.73;;
24008;SDS011;12217;50.792;4.372;2023-04-30T02:46:41;25.00;;;17.23;;
24008;SDS011;12217;50.792;4.372;2023-04-30T02:49:06;21.33;;;16.63;;
24008;SDS011;12217;50.792;4.372;2023-04-30T02:51:32;21.65;;;16.83;;
24008;SDS011;12217;50.792;4.372;2023-04-30T02:53:58;24.65;;;16.88;;
24008;SDS011;12217;50.792;4.372;2023-04-30T02:56:23;21.20;;;16.40;;
24008;SDS011;12217;50.792;4.372;2023-04-30T02:58:49;22.10;;;17.50;;
24008;SDS011;12217;50.792;4.372;2023-04-30T03:01:15;21.98;;;16.77;;
24008;SDS011;12217;50.792;4.372;2023-04-30T03:03:40;23.48;;;17.35;;
24008;SDS011;12217;50.792;4.372;2023-04-30T03:06:06;20.88;;;16.67;;
24008;SDS011;12217;50.792;4.372;2023-04-30T03:08:31;24.42;;;17.20;;
24008;SDS011;12217;50.792;4.372;2023-04-30T03:10:57;23.33;;;16.70;;
24008;SDS011;12217;50.792;4.372;2023-04-30T03:13:23;23.27;;;16.38;;
24008;SDS011;12217;50.792;4.372;2023-04-30T03:15:55;23.48;;;16.65;;
24008;SDS011;12217;50.792;4.372;2023-04-30T03:18:22;21.90;;;16.15;;
24008;SDS011;12217;50.792;4.372;2023-04-30T03:20:48;20.95;;;16.42;;
24008;SDS011;12217;50.792;4.372;2023-04-30T03:23:13;22.52;;;16.38;;
24008;SDS011;12217;50.792;4.372;2023-04-30T03:25:39;21.05;;;16.02;;
24008;SDS011;12217;50.792;4.372;2023-04-30T03:28:05;19.88;;;16.95;;
24008;SDS011;12217;50.792;4.372;2023-04-30T03:30:30;21.30;;;16.08;;
24008;SDS011;12217;50.792;4.372;2023-04-30T03:32:56;19.85;;;15.73;;
24008;SDS011;12217;50.792;4.372;2023-04-30T03:35:21;22.15;;;16.00;;
24008;SDS011;12217;50.792;4.372;2023-04-30T03:37:47;20.83;;;16.02;;
24008;SDS011;12217;50.792;4.372;2023-04-30T03:40:13;19.55;;;15.57;;
24008;SDS011;12217;50.792;4.372;2023-04-30T03:42:38;21.73;;;15.10;;
24008;SDS011;12217;50.792;4.372;2023-04-30T03:45:04;20.10;;;16.05;;
24008;SDS011;12217;50.792;4.372;2023-04-30T03:47:30;20.92;;;15.93;;
24008;SDS011;12217;50.792;4.372;2023-04-30T03:49:57;20.80;;;16.08;;
24008;SDS011;12217;50.792;4.372;2023-04-30T03:52:22;19.98;;;16.13;;
24008;SDS011;12217;50.792;4.372;2023-04-30T03:54:48;18.05;;;15.30;;
24008;SDS011;12217;50.792;4.372;2023-04-30T03:57:14;21.30;;;15.85;;
24008;SDS011;12217;50.792;4.372;2023-04-30T03:59:40;23.02;;;16.70;;
24008;SDS011;12217;50.792;4.372;2023-04-30T04:02:06;24.63;;;17.45;;
24008;SDS011;12217;50.792;4.372;2023-04-30T04:04:32;21.38;;;16.30;;
24008;SDS011;12217;50.792;4.372;2023-04-30T04:06:58;20.92;;;17.08;;
24008;SDS011;12217;50.792;4.372;2023-04-30T04:09:23;22.10;;;16.33;;
24008;SDS011;12217;50.792;4.372;2023-04-30T04:11:49;22.63;;;16.52;;
24008;SDS011;12217;50.792;4.372;2023-04-30T04:14:15;21.65;;;16.60;;
24008;SDS011;12217;50.792;4.372;2023-04-30T04:16:41;21.63;;;16.52;;
24008;SDS011;12217;50.792;4.372;2023-04-30T04:19:06;23.90;;;17.13;;
24008;SDS011;12217;50.792;4.372;2023-04-30T04:21:32;21.40;;;15.88;;
24008;SDS011;12217;50.792;4.372;2023-04-30T04:23:58;24.50;;;17.23;;
24008;SDS011;12217;50.792;4.372;2023-04-30T04:26:26;23.33;;;17.13;;
24008;SDS011;12217;50.792;4.372;2023-04-30T04:28:52;21.90;;;17.23;;
24008;SDS011;12217;50.792;4.372;2023-04-30T04:31:18;22.02;;;17.80;;
24008;SDS011;12217;50.792;4.372;2023-04-30T04:33:44;24.15;;;17.40;;
24008;SDS011;12217;50.792;4.372;2023-04-30T04:36:10;20.13;;;17.05;;
24008;SDS011;12217;50.792;4.372;2023-04-30T04:38:36;20.63;;;17.27;;
24008;SDS011;12217;50.792;4.372;2023-04-30T04:41:02;22.50;;;17.45;;
24008;SDS011;12217;50.792;4.372;2023-04-30T04:43:27;23.52;;;17.92;;
24008;SDS011;12217;50.792;4.372;2023-04-30T04:45:53;23.88;;;17.40;;
24008;SDS011;12217;50.792;4.372;2023-04-30T04:48:19;22.50;;;17.77;;
24008;SDS011;12217;50.792;4.372;2023-04-30T04:50:44;28.17;;;17.77;;
24008;SDS011;12217;50.792;4.372;2023-04-30T04:53:10;22.20;;;16.85;;
24008;SDS011;12217;50.792;4.372;2023-04-30T04:55:35;20.45;;;16.88;;
24008;SDS011;12217;50.792;4.372;2023-04-30T04:58:01;22.23;;;17.40;;
24008;SDS011;12217;50.792;4.372;2023-04-30T05:00:27;21.45;;;17.30;;
24008;SDS011;12217;50.792;4.372;2023-04-30T05:02:53;21.75;;;16.48;;
24008;SDS011;12217;50.792;4.372;2023-04-30T05:05:19;21.77;;;17.55;;
24008;SDS011;12217;50.792;4.372;2023-04-30T05:07:45;20.83;;;17.05;;
24008;SDS011;12217;50.792;4.372;2023-04-30T05:10:10;20.58;;;17.88;;
24008;SDS011;12217;50.792;4.372;2023-04-30T05:12:36;23.55;;;18.05;;
24008;SDS011;12217;50.792;4.372;2023-04-30T05:15:02;23.30;;;17.17;;
24008;SDS011;12217;50.792;4.372;2023-04-30T05:17:28;22.70;;;17.02;;
24008;SDS011;12217;50.792;4.372;2023-04-30T05:19:54;21.05;;;16.67;;
24008;SDS011;12217;50.792;4.372;2023-04-30T05:22:19;20.40;;;17.05;;
24008;SDS011;12217;50.792;4.372;2023-04-30T05:24:45;24.08;;;18.08;;
24008;SDS011;12217;50.792;4.372;2023-04-30T05:27:11;22.15;;;17.23;;
24008;SDS011;12217;50.792;4.372;2023-04-30T05:29:36;25.17;;;18.27;;
24008;SDS011;12217;50.792;4.372;2023-04-30T05:32:02;23.40;;;17.70;;
24008;SDS011;12217;50.792;4.372;2023-04-30T05:34:28;23.42;;;17.85;;
24008;SDS011;12217;50.792;4.372;2023-04-30T05:36:53;25.25;;;17.90;;
24008;SDS011;12217;50.792;4.372;2023-04-30T05:39:19;23.70;;;17.60;;
24008;SDS011;12217;50.792;4.372;2023-04-30T05:41:45;20.55;;;17.27;;
24008;SDS011;12217;50.792;4.372;2023-04-30T05:44:11;23.00;;;18.55;;
24008;SDS011;12217;50.792;4.372;2023-04-30T05:46:36;22.40;;;18.27;;
24008;SDS011;12217;50.792;4.372;2023-04-30T05:49:02;22.40;;;18.35;;
24008;SDS011;12217;50.792;4.372;2023-04-30T05:51:27;23.30;;;18.58;;
24008;SDS011;12217;50.792;4.372;2023-04-30T05:53:53;26.58;;;18.63;;
24008;SDS011;12217;50.792;4.372;2023-04-30T05:56:19;25.75;;;19.63;;
24008;SDS011;12217;50.792;4.372;2023-04-30T05:58:45;37.83;;;26.77;;
24008;SDS011;12217;50.792;4.372;2023-04-30T06:01:15;25.42;;;19.85;;
24008;SDS011;12217;50.792;4.372;2023-04-30T06:03:41;23.45;;;19.63;;
24008;SDS011;12217;50.792;4.372;2023-04-30T06:06:06;23.30;;;19.38;;
24008;SDS011;12217;50.792;4.372;2023-04-30T06:08:32;25.10;;;20.25;;
24008;SDS011;12217;50.792;4.372;2023-04-30T06:10:58;24.85;;;19.88;;
24008;SDS011;12217;50.792;4.372;2023-04-30T06:13:24;23.67;;;19.50;;
24008;SDS011;12217;50.792;4.372;2023-04-30T06:15:50;24.63;;;20.13;;
24008;SDS011;12217;50.792;4.372;2023-04-30T06:18:16;24.77;;;19.70;;
24008;SDS011;12217;50.792;4.372;2023-04-30T06:20:44;25.92;;;20.42;;
24008;SDS011;12217;50.792;4.372;2023-04-30T06:23:10;26.23;;;21.08;;
24008;SDS011;12217;50.792;4.372;2023-04-30T06:25:36;26.38;;;21.17;;
24008;SDS011;12217;50.792;4.372;2023-04-30T06:28:02;28.23;;;21.77;;
24008;SDS011;12217;50.792;4.372;2023-04-30T06:30:30;28.38;;;21.27;;
24008;SDS011;12217;50.792;4.372;2023-04-30T06:32:56;33.40;;;23.10;;
24008;SDS011;12217;50.792;4.372;2023-04-30T06:35:21;27.75;;;22.48;;
24008;SDS011;12217;50.792;4.372;2023-04-30T06:37:47;27.90;;;22.15;;
24008;SDS011;12217;50.792;4.372;2023-04-30T06:40:12;31.13;;;22.65;;
24008;SDS011;12217;50.792;4.372;2023-04-30T06:42:41;29.65;;;22.67;;
24008;SDS011;12217;50.792;4.372;2023-04-30T06:45:07;28.80;;;22.42;;
24008;SDS011;12217;50.792;4.372;2023-04-30T06:47:34;30.25;;;23.20;;
24008;SDS011;12217;50.792;4.372;2023-04-30T06:50:02;31.90;;;24.77;;
24008;SDS011;12217;50.792;4.372;2023-04-30T06:52:29;30.20;;;23.58;;
24008;SDS011;12217;50.792;4.372;2023-04-30T06:54:55;30.92;;;23.10;;
24008;SDS011;12217;50.792;4.372;2023-04-30T06:57:21;25.13;;;20.42;;
24008;SDS011;12217;50.792;4.372;2023-04-30T06:59:46;32.53;;;24.65;;
24008;SDS011;12217;50.792;4.372;2023-04-30T07:02:12;31.25;;;25.83;;
24008;SDS011;12217;50.792;4.372;2023-04-30T07:04:38;32.72;;;25.30;;
24008;SDS011;12217;50.792;4.372;2023-04-30T07:07:03;32.38;;;25.38;;
24008;SDS011;12217;50.792;4.372;2023-04-30T07:09:29;32.30;;;26.20;;
24008;SDS011;12217;50.792;4.372;2023-04-30T07:11:55;31.52;;;26.15;;
24008;SDS011;12217;50.792;4.372;2023-04-30T07:14:23;32.70;;;24.33;;
24008;SDS011;12217;50.792;4.372;2023-04-30T07:16:49;31.80;;;25.10;;
24008;SDS011;12217;50.792;4.372;2023-04-30T07:19:14;32.30;;;25.52;;
24008;SDS011;12217;50.792;4.372;2023-04-30T07:21:40;30.80;;;24.83;;
24008;SDS011;12217;50.792;4.372;2023-04-30T07:24:06;27.52;;;23.95;;
24008;SDS011;12217;50.792;4.372;2023-04-30T07:26:32;30.38;;;25.00;;
24008;SDS011;12217;50.792;4.372;2023-04-30T07:28:57;33.55;;;26.10;;
24008;SDS011;12217;50.792;4.372;2023-04-30T07:31:23;33.15;;;25.67;;
24008;SDS011;12217;50.792;4.372;2023-04-30T07:33:50;30.13;;;25.15;;
24008;SDS011;12217;50.792;4.372;2023-04-30T07:36:19;32.83;;;25.73;;
24008;SDS011;12217;50.792;4.372;2023-04-30T07:38:45;32.35;;;24.45;;
24008;SDS011;12217;50.792;4.372;2023-04-30T07:41:10;30.23;;;25.08;;
24008;SDS011;12217;50.792;4.372;2023-04-30T07:43:37;30.92;;;24.65;;
24008;SDS011;12217;50.792;4.372;2023-04-30T07:46:03;29.73;;;24.35;;
24008;SDS011;12217;50.792;4.372;2023-04-30T07:48:29;29.35;;;23.55;;
24008;SDS011;12217;50.792;4.372;2023-04-30T07:50:55;25.83;;;21.52;;
24008;SDS011;12217;50.792;4.372;2023-04-30T07:53:22;28.75;;;22.08;;
24008;SDS011;12217;50.792;4.372;2023-04-30T07:55:49;27.35;;;22.60;;
24008;SDS011;12217;50.792;4.372;2023-04-30T07:58:31;23.65;;;20.17;;
24008;SDS011;12217;50.792;4.372;2023-04-30T08:01:08;23.92;;;20.25;;
24008;SDS011;12217;50.792;4.372;2023-04-30T08:03:34;24.38;;;20.05;;
24008;SDS011;12217;50.792;4.372;2023-04-30T08:06:00;23.00;;;18.33;;
24008;SDS011;12217;50.792;4.372;2023-04-30T08:08:44;20.75;;;18.55;;
24008;SDS011;12217;50.792;4.372;2023-04-30T08:11:10;22.50;;;18.65;;
24008;SDS011;12217;50.792;4.372;2023-04-30T08:13:36;25.25;;;20.20;;
24008;SDS011;12217;50.792;4.372;2023-04-30T08:16:02;24.88;;;19.50;;
24008;SDS011;12217;50.792;4.372;2023-04-30T08:18:28;22.48;;;20.02;;
24008;SDS011;12217;50.792;4.372;2023-04-30T08:20:54;24.58;;;19.00;;
24008;SDS011;12217;50.792;4.372;2023-04-30T08:23:19;22.45;;;19.30;;
24008;SDS011;12217;50.792;4.372;2023-04-30T08:25:45;21.27;;;17.85;;
24008;SDS011;12217;50.792;4.372;2023-04-30T08:28:11;21.40;;;17.98;;
24008;SDS011;12217;50.792;4.372;2023-04-30T08:30:37;20.42;;;17.23;;
24008;SDS011;12217;50.792;4.372;2023-04-30T08:33:03;18.88;;;16.67;;
24008;SDS011;12217;50.792;4.372;2023-04-30T08:35:29;18.10;;;15.90;;
24008;SDS011;12217;50.792;4.372;2023-04-30T08:37:55;17.95;;;14.68;;
24008;SDS011;12217;50.792;4.372;2023-04-30T08:40:20;18.08;;;14.02;;
24008;SDS011;12217;50.792;4.372;2023-04-30T08:42:49;18.58;;;14.85;;
24008;SDS011;12217;50.792;4.372;2023-04-30T08:45:24;16.23;;;14.20;;
24008;SDS011;12217;50.792;4.372;2023-04-30T08:47:51;16.45;;;13.93;;
24008;SDS011;12217;50.792;4.372;2023-04-30T08:50:17;17.00;;;13.63;;
24008;SDS011;12217;50.792;4.372;2023-04-30T08:52:42;18.27;;;14.13;;
24008;SDS011;12217;50.792;4.372;2023-04-30T08:55:08;14.60;;;12.43;;
24008;SDS011;12217;50.792;4.372;2023-04-30T08:57:35;13.50;;;11.73;;
24008;SDS011;12217;50.792;4.372;2023-04-30T09:00:01;14.23;;;12.13;;
24008;SDS011;12217;50.792;4.372;2023-04-30T09:02:27;17.80;;;13.70;;
24008;SDS011;12217;50.792;4.372;2023-04-30T09:04:56;19.92;;;11.93;;
24008;SDS011;12217;50.792;4.372;2023-04-30T09:07:22;15.23;;;10.65;;
24008;SDS011;12217;50.792;4.372;2023-04-30T09:09:51;11.07;;;9.77;;
24008;SDS011;12217;50.792;4.372;2023-04-30T09:12:17;13.50;;;10.95;;
24008;SDS011;12217;50.792;4.372;2023-04-30T09:14:56;13.00;;;10.73;;
24008;SDS011;12217;50.792;4.372;2023-04-30T09:17:23;15.52;;;10.52;;
24008;SDS011;12217;50.792;4.372;2023-04-30T09:19:49;13.95;;;11.85;;
24008;SDS011;12217;50.792;4.372;2023-04-30T09:22:19;14.80;;;11.50;;
24008;SDS011;12217;50.792;4.372;2023-04-30T09:24:46;15.32;;;11.80;;
24008;SDS011;12217;50.792;4.372;2023-04-30T09:27:18;12.57;;;10.10;;
24008;SDS011;12217;50.792;4.372;2023-04-30T09:29:45;12.90;;;11.55;;
24008;SDS011;12217;50.792;4.372;2023-04-30T09:32:10;13.45;;;11.73;;
24008;SDS011;12217;50.792;4.372;2023-04-30T09:34:37;13.95;;;11.13;;
24008;SDS011;12217;50.792;4.372;2023-04-30T09:37:03;15.60;;;11.27;;
24008;SDS011;12217;50.792;4.372;2023-04-30T09:39:29;14.98;;;11.48;;
24008;SDS011;12217;50.792;4.372;2023-04-30T09:42:07;12.75;;;10.45;;
24008;SDS011;12217;50.792;4.372;2023-04-30T09:44:40;14.75;;;12.15;;
24008;SDS011;12217;50.792;4.372;2023-04-30T09:47:10;14.45;;;11.85;;
24008;SDS011;12217;50.792;4.372;2023-04-30T09:50:02;14.07;;;11.98;;
24008;SDS011;12217;50.792;4.372;2023-04-30T09:53:04;13.82;;;11.82;;
24008;SDS011;12217;50.792;4.372;2023-04-30T09:55:31;13.05;;;11.10;;
24008;SDS011;12217;50.792;4.372;2023-04-30T09:58:11;11.23;;;9.30;;
24008;SDS011;12217;50.792;4.372;2023-04-30T10:00:44;8.77;;;7.68;;
24008;SDS011;12217;50.792;4.372;2023-04-30T10:03:11;8.32;;;7.53;;
24008;SDS011;12217;50.792;4.372;2023-04-30T10:05:44;11.48;;;9.63;;
24008;SDS011;12217;50.792;4.372;2023-04-30T10:08:21;10.52;;;8.07;;
24008;SDS011;12217;50.792;4.372;2023-04-30T10:10:52;8.93;;;7.60;;
24008;SDS011;12217;50.792;4.372;2023-04-30T10:13:23;10.48;;;8.82;;
24008;SDS011;12217;50.792;4.372;2023-04-30T10:15:53;11.50;;;8.73;;
24008;SDS011;12217;50.792;4.372;2023-04-30T10:18:27;9.98;;;8.88;;
24008;SDS011;12217;50.792;4.372;2023-04-30T10:20:58;7.95;;;7.07;;
24008;SDS011;12217;50.792;4.372;2023-04-30T10:23:34;10.40;;;8.40;;
24008;SDS011;12217;50.792;4.372;2023-04-30T10:26:01;10.82;;;8.30;;
24008;SDS011;12217;50.792;4.372;2023-04-30T10:28:28;8.45;;;7.57;;
24008;SDS011;12217;50.792;4.372;2023-04-30T10:30:55;9.50;;;8.40;;
24008;SDS011;12217;50.792;4.372;2023-04-30T10:35:57;8.93;;;8.02;;
24008;SDS011;12217;50.792;4.372;2023-04-30T10:38:26;9.50;;;8.50;;
24008;SDS011;12217;50.792;4.372;2023-04-30T10:40:55;7.75;;;6.28;;
24008;SDS011;12217;50.792;4.372;2023-04-30T10:43:23;7.82;;;7.00;;
24008;SDS011;12217;50.792;4.372;2023-04-30T10:45:50;10.13;;;7.03;;
24008;SDS011;12217;50.792;4.372;2023-04-30T10:48:16;10.23;;;5.80;;
24008;SDS011;12217;50.792;4.372;2023-04-30T10:50:49;7.88;;;5.35;;
24008;SDS011;12217;50.792;4.372;2023-04-30T10:53:17;7.55;;;6.68;;
24008;SDS011;12217;50.792;4.372;2023-04-30T10:55:51;7.20;;;6.18;;
24008;SDS011;12217;50.792;4.372;2023-04-30T10:58:22;9.80;;;6.20;;
24008;SDS011;12217;50.792;4.372;2023-04-30T11:00:58;6.10;;;5.40;;
24008;SDS011;12217;50.792;4.372;2023-04-30T11:03:36;6.57;;;5.25;;
24008;SDS011;12217;50.792;4.372;2023-04-30T11:06:09;9.50;;;7.30;;
24008;SDS011;12217;50.792;4.372;2023-04-30T11:08:43;6.47;;;5.18;;
24008;SDS011;12217;50.792;4.372;2023-04-30T11:11:10;5.25;;;4.40;;
24008;SDS011;12217;50.792;4.372;2023-04-30T11:13:44;6.05;;;4.95;;
24008;SDS011;12217;50.792;4.372;2023-04-30T11:16:11;6.15;;;5.55;;
24008;SDS011;12217;50.792;4.372;2023-04-30T11:18:40;5.80;;;5.03;;
24008;SDS011;12217;50.792;4.372;2023-04-30T11:21:09;7.38;;;5.13;;
24008;SDS011;12217;50.792;4.372;2023-04-30T11:23:41;7.05;;;6.35;;
24008;SDS011;12217;50.792;4.372;2023-04-30T11:26:07;7.50;;;6.75;;
24008;SDS011;12217;50.792;4.372;2023-04-30T11:28:34;6.10;;;5.43;;
24008;SDS011;12217;50.792;4.372;2023-04-30T11:31:02;6.15;;;5.30;;
24008;SDS011;12217;50.792;4.372;2023-04-30T11:33:29;7.28;;;6.30;;
24008;SDS011;12217;50.792;4.372;2023-04-30T11:35:56;6.38;;;5.78;;
24008;SDS011;12217;50.792;4.372;2023-04-30T11:38:26;5.82;;;5.22;;
24008;SDS011;12217;50.792;4.372;2023-04-30T11:40:54;6.47;;;5.37;;
24008;SDS011;12217;50.792;4.372;2023-04-30T11:43:21;6.10;;;5.05;;
24008;SDS011;12217;50.792;4.372;2023-04-30T11:48:31;7.03;;;5.20;;
24008;SDS011;12217;50.792;4.372;2023-04-30T11:50:58;6.03;;;5.43;;
24008;SDS011;12217;50.792;4.372;2023-04-30T11:53:27;5.32;;;4.65;;
24008;SDS011;12217;50.792;4.372;2023-04-30T11:55:53;5.72;;;5.03;;
24008;SDS011;12217;50.792;4.372;2023-04-30T11:58:19;6.43;;;5.25;;
24008;SDS011;12217;50.792;4.372;2023-04-30T12:00:46;9.02;;;5.75;;
24008;SDS011;12217;50.792;4.372;2023-04-30T12:03:15;6.13;;;5.40;;
24008;SDS011;12217;50.792;4.372;2023-04-30T12:05:44;6.32;;;5.72;;
24008;SDS011;12217;50.792;4.372;2023-04-30T12:08:13;6.65;;;5.93;;
24008;SDS011;12217;50.792;4.372;2023-04-30T12:10:42;6.60;;;6.00;;
24008;SDS011;12217;50.792;4.372;2023-04-30T12:13:12;7.03;;;5.47;;
24008;SDS011;12217;50.792;4.372;2023-04-30T12:15:38;8.25;;;6.05;;
24008;SDS011;12217;50.792;4.372;2023-04-30T12:18:12;6.15;;;5.55;;
24008;SDS011;12217;50.792;4.372;2023-04-30T12:20:39;6.75;;;5.97;;
24008;SDS011;12217;50.792;4.372;2023-04-30T12:23:06;7.30;;;5.97;;
24008;SDS011;12217;50.792;4.372;2023-04-30T12:25:39;10.18;;;6.25;;
24008;SDS011;12217;50.792;4.372;2023-04-30T12:28:06;7.35;;;5.38;;
24008;SDS011;12217;50.792;4.372;2023-04-30T12:30:32;5.65;;;4.90;;
24008;SDS011;12217;50.792;4.372;2023-04-30T12:32:58;5.80;;;4.82;;
24008;SDS011;12217;50.792;4.372;2023-04-30T12:35:26;7.50;;;5.05;;
24008;SDS011;12217;50.792;4.372;2023-04-30T12:37:53;7.93;;;5.70;;
24008;SDS011;12217;50.792;4.372;2023-04-30T12:40:30;6.50;;;5.80;;
24008;SDS011;12217;50.792;4.372;2023-04-30T12:43:03;7.25;;;6.55;;
24008;SDS011;12217;50.792;4.372;2023-04-30T12:45:43;7.63;;;6.05;;
24008;SDS011;12217;50.792;4.372;2023-04-30T12:48:17;9.55;;;5.88;;
24008;SDS011;12217;50.792;4.372;2023-04-30T12:50:47;6.78;;;5.40;;
24008;SDS011;12217;50.792;4.372;2023-04-30T12:53:23;6.18;;;5.57;;
24008;SDS011;12217;50.792;4.372;2023-04-30T12:56:05;6.78;;;4.93;;
24008;SDS011;12217;50.792;4.372;2023-04-30T12:58:39;8.57;;;5.00;;
24008;SDS011;12217;50.792;4.372;2023-04-30T13:01:09;6.57;;;5.15;;
24008;SDS011;12217;50.792;4.372;2023-04-30T13:03:36;5.20;;;4.40;;
24008;SDS011;12217;50.792;4.372;2023-04-30T13:06:02;5.50;;;4.20;;
24008;SDS011;12217;50.792;4.372;2023-04-30T13:08:30;5.93;;;4.00;;
24008;SDS011;12217;50.792;4.372;2023-04-30T13:10:56;5.28;;;3.75;;
24008;SDS011;12217;50.792;4.372;2023-04-30T13:13:22;6.32;;;3.60;;
24008;SDS011;12217;50.792;4.372;2023-04-30T13:15:48;5.88;;;4.13;;
24008;SDS011;12217;50.792;4.372;2023-04-30T13:18:13;4.45;;;3.63;;
24008;SDS011;12217;50.792;4.372;2023-04-30T13:20:42;4.90;;;3.25;;
24008;SDS011;12217;50.792;4.372;2023-04-30T13:23:08;3.83;;;3.40;;
24008;SDS011;12217;50.792;4.372;2023-04-30T13:25:35;5.28;;;3.20;;
24008;SDS011;12217;50.792;4.372;2023-04-30T13:28:02;5.65;;;3.78;;
24008;SDS011;12217;50.792;4.372;2023-04-30T13:30:28;5.75;;;3.90;;
24008;SDS011;12217;50.792;4.372;2023-04-30T13:32:53;5.80;;;3.90;;
24008;SDS011;12217;50.792;4.372;2023-04-30T13:35:19;5.32;;;4.40;;
24008;SDS011;12217;50.792;4.372;2023-04-30T13:37:45;5.20;;;4.15;;
24008;SDS011;12217;50.792;4.372;2023-04-30T13:40:13;3.88;;;3.22;;
24008;SDS011;12217;50.792;4.372;2023-04-30T13:42:40;3.72;;;3.42;;
24008;SDS011;12217;50.792;4.372;2023-04-30T13:45:07;4.57;;;3.35;;
24008;SDS011;12217;50.792;4.372;2023-04-30T13:47:33;3.80;;;3.47;;
24008;SDS011;12217;50.792;4.372;2023-04-30T13:49:59;4.00;;;3.67;;
24008;SDS011;12217;50.792;4.372;2023-04-30T13:52:26;3.90;;;3.45;;
24008;SDS011;12217;50.792;4.372;2023-04-30T13:54:51;4.07;;;3.67;;
24008;SDS011;12217;50.792;4.372;2023-04-30T13:57:17;4.22;;;3.80;;
24008;SDS011;12217;50.792;4.372;2023-04-30T13:59:43;3.95;;;3.63;;
24008;SDS011;12217;50.792;4.372;2023-04-30T14:02:08;4.60;;;3.50;;
24008;SDS011;12217;50.792;4.372;2023-04-30T14:04:34;3.60;;;3.30;;
24008;SDS011;12217;50.792;4.372;2023-04-30T14:07:01;4.32;;;3.22;;
24008;SDS011;12217;50.792;4.372;2023-04-30T14:09:27;3.28;;;2.97;;
24008;SDS011;12217;50.792;4.372;2023-04-30T14:11:53;6.85;;;4.45;;
24008;SDS011;12217;50.792;4.372;2023-04-30T14:14:21;6.25;;;5.75;;
24008;SDS011;12217;50.792;4.372;2023-04-30T14:16:47;4.00;;;3.63;;
24008;SDS011;12217;50.792;4.372;2023-04-30T14:19:13;4.85;;;3.70;;
24008;SDS011;12217;50.792;4.372;2023-04-30T14:21:39;5.78;;;3.78;;
24008;SDS011;12217;50.792;4.372;2023-04-30T14:24:05;5.10;;;2.92;;
24008;SDS011;12217;50.792;4.372;2023-04-30T14:26:30;3.80;;;3.47;;
24008;SDS011;12217;50.792;4.372;2023-04-30T14:28:56;3.83;;;3.50;;
24008;SDS011;12217;50.792;4.372;2023-04-30T14:31:23;4.15;;;3.38;;
24008;SDS011;12217;50.792;4.372;2023-04-30T14:33:49;3.92;;;3.60;;
24008;SDS011;12217;50.792;4.372;2023-04-30T14:36:14;3.72;;;3.42;;
24008;SDS011;12217;50.792;4.372;2023-04-30T14:38:41;3.40;;;3.10;;
24008;SDS011;12217;50.792;4.372;2023-04-30T14:41:06;3.63;;;3.30;;
24008;SDS011;12217;50.792;4.372;2023-04-30T14:43:32;4.07;;;3.20;;
24008;SDS011;12217;50.792;4.372;2023-04-30T14:45:58;3.03;;;2.72;;
24008;SDS011;12217;50.792;4.372;2023-04-30T14:48:23;3.67;;;2.97;;
24008;SDS011;12217;50.792;4.372;2023-04-30T14:50:49;3.28;;;2.67;;
24008;SDS011;12217;50.792;4.372;2023-04-30T14:53:16;3.47;;;3.03;;
24008;SDS011;12217;50.792;4.372;2023-04-30T14:55:41;4.20;;;3.33;;